sensor_id;sensor_type;location;lat;lon;timestamp;temperature;humidity
57709;SHT35;42558;52.388;13.390;2022-12-17T00:00:20;-1.50;86.24
57709;SHT35;42558;52.388;13.390;2022-12-17T00:03:09;-1.50;86.48
57709;SHT35;42558;52.388;13.390;2022-12-17T00:05:58;-1.52;86.43
57709;SHT35;42558;52.388;13.390;2022-12-17T00:08:46;-1.45;86.79
57709;SHT35;42558;52.388;13.390;2022-12-17T00:11:35;-1.36;86.76
57709;SHT35;42558;52.388;13.390;2022-12-17T00:14:24;-1.26;86.64
57709;SHT35;42558;52.388;13.390;2022-12-17T00:17:13;-1.27;86.19
57709;SHT35;42558;52.388;13.390;2022-12-17T00:20:01;-1.21;86.19
57709;SHT35;42558;52.388;13.390;2022-12-17T00:23:00;-1.22;85.92
57709;SHT35;42558;52.388;13.390;2022-12-17T00:25:52;-1.37;85.62
57709;SHT35;42558;52.388;13.390;2022-12-17T00:28:41;-1.46;86.06
57709;SHT35;42558;52.388;13.390;2022-12-17T00:31:30;-1.49;86.27
57709;SHT35;42558;52.388;13.390;2022-12-17T00:34:35;-1.50;86.54
57709;SHT35;42558;52.388;13.390;2022-12-17T00:37:25;-1.59;86.70
57709;SHT35;42558;52.388;13.390;2022-12-17T00:40:14;-1.65;87.24
57709;SHT35;42558;52.388;13.390;2022-12-17T00:43:12;-1.53;87.43
57709;SHT35;42558;52.388;13.390;2022-12-17T00:46:00;-1.50;87.23
57709;SHT35;42558;52.388;13.390;2022-12-17T00:48:49;-1.44;87.16
57709;SHT35;42558;52.388;13.390;2022-12-17T00:51:38;-1.45;86.90
57709;SHT35;42558;52.388;13.390;2022-12-17T00:54:27;-1.41;86.91
57709;SHT35;42558;52.388;13.390;2022-12-17T00:57:15;-1.45;86.65
57709;SHT35;42558;52.388;13.390;2022-12-17T01:00:04;-1.50;86.57
57709;SHT35;42558;52.388;13.390;2022-12-17T01:02:53;-1.47;86.87
57709;SHT35;42558;52.388;13.390;2022-12-17T01:05:51;-1.50;86.69
57709;SHT35;42558;52.388;13.390;2022-12-17T01:08:39;-1.52;86.74
57709;SHT35;42558;52.388;13.390;2022-12-17T01:11:28;-1.48;86.91
57709;SHT35;42558;52.388;13.390;2022-12-17T01:14:17;-1.47;86.86
57709;SHT35;42558;52.388;13.390;2022-12-17T01:17:05;-1.45;86.88
57709;SHT35;42558;52.388;13.390;2022-12-17T01:19:54;-1.44;86.86
57709;SHT35;42558;52.388;13.390;2022-12-17T01:22:44;-1.44;86.84
57709;SHT35;42558;52.388;13.390;2022-12-17T01:25:32;-1.43;86.85
57709;SHT35;42558;52.388;13.390;2022-12-17T01:28:25;-1.47;86.65
57709;SHT35;42558;52.388;13.390;2022-12-17T01:31:14;-1.57;86.62
57709;SHT35;42558;52.388;13.390;2022-12-17T01:34:04;-1.59;86.83
57709;SHT35;42558;52.388;13.390;2022-12-17T01:36:52;-1.58;86.91
57709;SHT35;42558;52.388;13.390;2022-12-17T01:39:41;-1.61;86.85
57709;SHT35;42558;52.388;13.390;2022-12-17T01:42:40;-1.70;86.87
57709;SHT35;42558;52.388;13.390;2022-12-17T01:45:40;-1.72;87.19
57709;SHT35;42558;52.388;13.390;2022-12-17T01:48:53;-1.85;87.39
57709;SHT35;42558;52.388;13.390;2022-12-17T01:51:42;-1.94;87.63
57709;SHT35;42558;52.388;13.390;2022-12-17T01:54:31;-1.98;87.64
57709;SHT35;42558;52.388;13.390;2022-12-17T01:57:19;-1.99;87.73
57709;SHT35;42558;52.388;13.390;2022-12-17T02:00:09;-1.99;88.02
57709;SHT35;42558;52.388;13.390;2022-12-17T02:03:01;-1.99;88.21
57709;SHT35;42558;52.388;13.390;2022-12-17T02:12:35;-1.98;88.60
57709;SHT35;42558;52.388;13.390;2022-12-17T02:16:21;-1.95;88.59
57709;SHT35;42558;52.388;13.390;2022-12-17T02:29:23;-1.94;88.78
57709;SHT35;42558;52.388;13.390;2022-12-17T02:32:14;-1.94;88.95
57709;SHT35;42558;52.388;13.390;2022-12-17T02:35:06;-1.97;89.16
57709;SHT35;42558;52.388;13.390;2022-12-17T02:38:15;-1.96;89.20
57709;SHT35;42558;52.388;13.390;2022-12-17T02:41:13;-1.97;89.49
57709;SHT35;42558;52.388;13.390;2022-12-17T02:44:32;-1.96;89.70
57709;SHT35;42558;52.388;13.390;2022-12-17T02:47:23;-1.94;89.72
57709;SHT35;42558;52.388;13.390;2022-12-17T02:50:13;-1.98;89.85
57709;SHT35;42558;52.388;13.390;2022-12-17T02:53:02;-1.99;90.02
57709;SHT35;42558;52.388;13.390;2022-12-17T02:55:51;-1.97;90.07
57709;SHT35;42558;52.388;13.390;2022-12-17T02:58:40;-1.96;90.07
57709;SHT35;42558;52.388;13.390;2022-12-17T03:01:29;-2.02;90.41
57709;SHT35;42558;52.388;13.390;2022-12-17T03:12:22;-2.01;90.19
57709;SHT35;42558;52.388;13.390;2022-12-17T03:15:10;-1.98;90.44
57709;SHT35;42558;52.388;13.390;2022-12-17T03:17:59;-2.02;90.28
57709;SHT35;42558;52.388;13.390;2022-12-17T03:20:51;-2.03;90.38
57709;SHT35;42558;52.388;13.390;2022-12-17T03:23:40;-1.96;90.44
57709;SHT35;42558;52.388;13.390;2022-12-17T03:26:28;-1.91;90.26
57709;SHT35;42558;52.388;13.390;2022-12-17T03:29:17;-1.98;90.02
57709;SHT35;42558;52.388;13.390;2022-12-17T03:32:06;-2.05;89.90
57709;SHT35;42558;52.388;13.390;2022-12-17T03:34:54;-2.13;89.97
57709;SHT35;42558;52.388;13.390;2022-12-17T03:37:43;-2.18;90.45
57709;SHT35;42558;52.388;13.390;2022-12-17T03:40:49;-2.16;90.55
57709;SHT35;42558;52.388;13.390;2022-12-17T03:43:37;-2.15;90.37
57709;SHT35;42558;52.388;13.390;2022-12-17T03:46:26;-2.19;90.36
57709;SHT35;42558;52.388;13.390;2022-12-17T03:49:15;-2.19;90.54
57709;SHT35;42558;52.388;13.390;2022-12-17T03:52:03;-2.19;90.64
57709;SHT35;42558;52.388;13.390;2022-12-17T03:54:52;-2.23;90.63
57709;SHT35;42558;52.388;13.390;2022-12-17T03:57:40;-2.18;90.70
57709;SHT35;42558;52.388;13.390;2022-12-17T04:00:29;-2.24;90.64
57709;SHT35;42558;52.388;13.390;2022-12-17T04:03:18;-2.30;90.61
57709;SHT35;42558;52.388;13.390;2022-12-17T04:06:07;-2.33;90.81
57709;SHT35;42558;52.388;13.390;2022-12-17T04:08:56;-2.31;90.79
57709;SHT35;42558;52.388;13.390;2022-12-17T04:11:44;-2.25;90.96
57709;SHT35;42558;52.388;13.390;2022-12-17T04:14:32;-2.25;90.89
57709;SHT35;42558;52.388;13.390;2022-12-17T04:17:21;-2.24;90.90
57709;SHT35;42558;52.388;13.390;2022-12-17T04:20:10;-2.26;90.80
57709;SHT35;42558;52.388;13.390;2022-12-17T04:22:59;-2.23;90.80
57709;SHT35;42558;52.388;13.390;2022-12-17T04:25:47;-2.27;90.67
57709;SHT35;42558;52.388;13.390;2022-12-17T04:28:33;-2.33;90.54
57709;SHT35;42558;52.388;13.390;2022-12-17T04:31:21;-2.37;90.65
57709;SHT35;42558;52.388;13.390;2022-12-17T04:34:10;-2.30;90.69
57709;SHT35;42558;52.388;13.390;2022-12-17T04:36:59;-2.31;90.65
57709;SHT35;42558;52.388;13.390;2022-12-17T04:39:47;-2.24;90.67
57709;SHT35;42558;52.388;13.390;2022-12-17T04:42:36;-2.27;90.55
57709;SHT35;42558;52.388;13.390;2022-12-17T04:45:24;-2.36;90.49
57709;SHT35;42558;52.388;13.390;2022-12-17T04:48:13;-2.36;90.51
57709;SHT35;42558;52.388;13.390;2022-12-17T04:51:01;-2.31;90.60
57709;SHT35;42558;52.388;13.390;2022-12-17T04:53:47;-2.33;90.57
57709;SHT35;42558;52.388;13.390;2022-12-17T04:56:35;-2.44;90.75
57709;SHT35;42558;52.388;13.390;2022-12-17T04:59:21;-2.45;90.88
57709;SHT35;42558;52.388;13.390;2022-12-17T05:02:07;-2.47;91.12
57709;SHT35;42558;52.388;13.390;2022-12-17T05:04:55;-2.48;91.19
57709;SHT35;42558;52.388;13.390;2022-12-17T05:07:44;-2.42;91.26
57709;SHT35;42558;52.388;13.390;2022-12-17T05:10:33;-2.45;91.17
57709;SHT35;42558;52.388;13.390;2022-12-17T05:13:21;-2.39;91.30
57709;SHT35;42558;52.388;13.390;2022-12-17T05:16:10;-2.34;91.17
57709;SHT35;42558;52.388;13.390;2022-12-17T05:18:59;-2.34;91.05
57709;SHT35;42558;52.388;13.390;2022-12-17T05:21:48;-2.31;91.01
57709;SHT35;42558;52.388;13.390;2022-12-17T05:24:36;-2.30;90.97
57709;SHT35;42558;52.388;13.390;2022-12-17T05:27:25;-2.37;90.80
57709;SHT35;42558;52.388;13.390;2022-12-17T05:30:13;-2.38;90.79
57709;SHT35;42558;52.388;13.390;2022-12-17T05:33:02;-2.35;90.79
57709;SHT35;42558;52.388;13.390;2022-12-17T05:35:49;-2.31;90.94
57709;SHT35;42558;52.388;13.390;2022-12-17T05:38:38;-2.30;90.94
57709;SHT35;42558;52.388;13.390;2022-12-17T05:41:26;-2.33;90.80
57709;SHT35;42558;52.388;13.390;2022-12-17T05:44:15;-2.29;90.82
57709;SHT35;42558;52.388;13.390;2022-12-17T05:47:03;-2.35;90.78
57709;SHT35;42558;52.388;13.390;2022-12-17T05:49:53;-2.34;90.77
57709;SHT35;42558;52.388;13.390;2022-12-17T05:52:39;-2.31;90.84
57709;SHT35;42558;52.388;13.390;2022-12-17T05:55:28;-2.28;90.90
57709;SHT35;42558;52.388;13.390;2022-12-17T05:58:16;-2.21;90.83
57709;SHT35;42558;52.388;13.390;2022-12-17T06:01:05;-2.21;90.68
57709;SHT35;42558;52.388;13.390;2022-12-17T06:03:54;-2.26;90.40
57709;SHT35;42558;52.388;13.390;2022-12-17T06:06:42;-2.32;90.29
57709;SHT35;42558;52.388;13.390;2022-12-17T06:09:31;-2.36;90.30
57709;SHT35;42558;52.388;13.390;2022-12-17T06:12:19;-2.29;90.43
57709;SHT35;42558;52.388;13.390;2022-12-17T06:15:07;-2.27;90.40
57709;SHT35;42558;52.388;13.390;2022-12-17T06:17:56;-2.33;90.13
57709;SHT35;42558;52.388;13.390;2022-12-17T06:20:45;-2.28;90.14
57709;SHT35;42558;52.388;13.390;2022-12-17T06:23:34;-2.38;90.01
57709;SHT35;42558;52.388;13.390;2022-12-17T06:26:22;-2.41;90.15
57709;SHT35;42558;52.388;13.390;2022-12-17T06:29:11;-2.32;90.18
57709;SHT35;42558;52.388;13.390;2022-12-17T06:31:59;-2.28;90.02
57709;SHT35;42558;52.388;13.390;2022-12-17T06:34:49;-2.34;89.96
57709;SHT35;42558;52.388;13.390;2022-12-17T06:37:35;-2.33;89.85
57709;SHT35;42558;52.388;13.390;2022-12-17T06:40:24;-2.32;89.86
57709;SHT35;42558;52.388;13.390;2022-12-17T06:43:13;-2.30;89.82
57709;SHT35;42558;52.388;13.390;2022-12-17T06:46:02;-2.33;89.86
57709;SHT35;42558;52.388;13.390;2022-12-17T06:48:51;-2.30;89.86
57709;SHT35;42558;52.388;13.390;2022-12-17T06:51:39;-2.20;89.91
57709;SHT35;42558;52.388;13.390;2022-12-17T06:54:28;-2.34;89.61
57709;SHT35;42558;52.388;13.390;2022-12-17T06:57:17;-2.43;89.59
57709;SHT35;42558;52.388;13.390;2022-12-17T07:00:13;-2.37;89.69
57709;SHT35;42558;52.388;13.390;2022-12-17T07:03:02;-2.42;89.44
57709;SHT35;42558;52.388;13.390;2022-12-17T07:05:51;-2.39;89.55
57709;SHT35;42558;52.388;13.390;2022-12-17T07:08:39;-2.32;89.43
57709;SHT35;42558;52.388;13.390;2022-12-17T07:11:28;-2.24;89.31
57709;SHT35;42558;52.388;13.390;2022-12-17T07:14:15;-2.32;88.97
57709;SHT35;42558;52.388;13.390;2022-12-17T07:17:03;-2.42;88.92
57709;SHT35;42558;52.388;13.390;2022-12-17T07:19:52;-2.43;89.28
57709;SHT35;42558;52.388;13.390;2022-12-17T07:22:40;-2.49;89.23
57709;SHT35;42558;52.388;13.390;2022-12-17T07:25:28;-2.53;89.33
57709;SHT35;42558;52.388;13.390;2022-12-17T07:28:17;-2.48;89.43
57709;SHT35;42558;52.388;13.390;2022-12-17T07:31:06;-2.46;89.46
57709;SHT35;42558;52.388;13.390;2022-12-17T07:33:54;-2.49;89.40
57709;SHT35;42558;52.388;13.390;2022-12-17T07:36:42;-2.57;89.30
57709;SHT35;42558;52.388;13.390;2022-12-17T07:39:31;-2.46;89.55
57709;SHT35;42558;52.388;13.390;2022-12-17T07:42:19;-2.34;89.56
57709;SHT35;42558;52.388;13.390;2022-12-17T07:45:08;-2.32;89.35
57709;SHT35;42558;52.388;13.390;2022-12-17T07:47:56;-2.40;88.87
57709;SHT35;42558;52.388;13.390;2022-12-17T07:50:48;-2.43;88.74
57709;SHT35;42558;52.388;13.390;2022-12-17T07:53:37;-2.40;88.71
57709;SHT35;42558;52.388;13.390;2022-12-17T07:56:26;-2.42;88.57
57709;SHT35;42558;52.388;13.390;2022-12-17T07:59:12;-2.58;88.30
57709;SHT35;42558;52.388;13.390;2022-12-17T08:02:01;-2.58;88.73
57709;SHT35;42558;52.388;13.390;2022-12-17T08:04:50;-2.64;89.00
57709;SHT35;42558;52.388;13.390;2022-12-17T08:07:38;-2.59;88.98
57709;SHT35;42558;52.388;13.390;2022-12-17T08:10:27;-2.64;88.91
57709;SHT35;42558;52.388;13.390;2022-12-17T08:13:15;-2.57;89.01
57709;SHT35;42558;52.388;13.390;2022-12-17T08:16:04;-2.56;88.99
57709;SHT35;42558;52.388;13.390;2022-12-17T08:18:53;-2.54;88.98
57709;SHT35;42558;52.388;13.390;2022-12-17T08:21:42;-2.51;88.91
57709;SHT35;42558;52.388;13.390;2022-12-17T08:24:30;-2.40;88.88
57709;SHT35;42558;52.388;13.390;2022-12-17T08:27:19;-2.26;89.01
57709;SHT35;42558;52.388;13.390;2022-12-17T08:30:07;-2.13;88.81
57709;SHT35;42558;52.388;13.390;2022-12-17T08:33:00;-2.27;88.08
57709;SHT35;42558;52.388;13.390;2022-12-17T08:35:52;-2.26;88.21
57709;SHT35;42558;52.388;13.390;2022-12-17T08:38:43;-2.28;88.04
57709;SHT35;42558;52.388;13.390;2022-12-17T08:41:32;-2.25;88.03
57709;SHT35;42558;52.388;13.390;2022-12-17T08:44:24;-2.33;87.95
57709;SHT35;42558;52.388;13.390;2022-12-17T08:47:13;-2.30;87.82
57709;SHT35;42558;52.388;13.390;2022-12-17T08:50:02;-2.51;87.94
57709;SHT35;42558;52.388;13.390;2022-12-17T08:52:56;-2.46;88.26
57709;SHT35;42558;52.388;13.390;2022-12-17T08:55:49;-2.46;88.30
57709;SHT35;42558;52.388;13.390;2022-12-17T08:58:37;-2.40;88.36
57709;SHT35;42558;52.388;13.390;2022-12-17T09:01:27;-2.33;88.32
57709;SHT35;42558;52.388;13.390;2022-12-17T09:04:16;-2.39;88.27
57709;SHT35;42558;52.388;13.390;2022-12-17T09:07:05;-2.34;88.40
57709;SHT35;42558;52.388;13.390;2022-12-17T09:09:53;-2.33;88.41
57709;SHT35;42558;52.388;13.390;2022-12-17T09:12:42;-2.29;88.21
57709;SHT35;42558;52.388;13.390;2022-12-17T09:15:33;-2.43;88.31
57709;SHT35;42558;52.388;13.390;2022-12-17T09:18:21;-2.44;88.33
57709;SHT35;42558;52.388;13.390;2022-12-17T09:21:09;-2.41;88.35
57709;SHT35;42558;52.388;13.390;2022-12-17T09:23:58;-2.44;88.29
57709;SHT35;42558;52.388;13.390;2022-12-17T09:26:46;-2.50;88.30
57709;SHT35;42558;52.388;13.390;2022-12-17T09:29:35;-2.38;88.39
57709;SHT35;42558;52.388;13.390;2022-12-17T09:32:23;-2.43;88.10
57709;SHT35;42558;52.388;13.390;2022-12-17T09:35:11;-2.36;88.26
57709;SHT35;42558;52.388;13.390;2022-12-17T09:38:00;-2.26;88.12
57709;SHT35;42558;52.388;13.390;2022-12-17T09:40:49;-2.30;87.96
57709;SHT35;42558;52.388;13.390;2022-12-17T09:47:21;-2.21;88.07
57709;SHT35;42558;52.388;13.390;2022-12-17T09:50:20;-2.31;88.20
57709;SHT35;42558;52.388;13.390;2022-12-17T09:53:19;-2.25;88.17
57709;SHT35;42558;52.388;13.390;2022-12-17T09:56:09;-2.21;88.15
57709;SHT35;42558;52.388;13.390;2022-12-17T09:59:02;-2.25;88.03
57709;SHT35;42558;52.388;13.390;2022-12-17T10:01:51;-2.26;88.16
57709;SHT35;42558;52.388;13.390;2022-12-17T10:04:41;-2.23;88.15
57709;SHT35;42558;52.388;13.390;2022-12-17T10:07:33;-2.04;88.32
57709;SHT35;42558;52.388;13.390;2022-12-17T10:10:28;-2.03;87.74
57709;SHT35;42558;52.388;13.390;2022-12-17T10:13:20;-2.08;87.28
57709;SHT35;42558;52.388;13.390;2022-12-17T10:16:23;-2.12;87.33
57709;SHT35;42558;52.388;13.390;2022-12-17T10:22:28;-2.18;87.38
57709;SHT35;42558;52.388;13.390;2022-12-17T10:25:18;-2.15;87.52
57709;SHT35;42558;52.388;13.390;2022-12-17T10:28:11;-2.14;87.56
57709;SHT35;42558;52.388;13.390;2022-12-17T10:31:10;-2.11;87.56
57709;SHT35;42558;52.388;13.390;2022-12-17T10:34:06;-2.18;87.50
57709;SHT35;42558;52.388;13.390;2022-12-17T10:37:01;-2.40;88.01
57709;SHT35;42558;52.388;13.390;2022-12-17T10:39:54;-2.26;88.26
57709;SHT35;42558;52.388;13.390;2022-12-17T10:42:46;-2.21;87.77
57709;SHT35;42558;52.388;13.390;2022-12-17T10:45:35;-2.12;87.82
57709;SHT35;42558;52.388;13.390;2022-12-17T10:48:25;-2.14;87.52
57709;SHT35;42558;52.388;13.390;2022-12-17T10:51:34;-2.04;87.83
57709;SHT35;42558;52.388;13.390;2022-12-17T10:54:26;-2.00;87.66
57709;SHT35;42558;52.388;13.390;2022-12-17T11:00:26;-2.09;87.40
57709;SHT35;42558;52.388;13.390;2022-12-17T11:06:35;-2.28;87.59
57709;SHT35;42558;52.388;13.390;2022-12-17T11:09:30;-2.28;87.52
57709;SHT35;42558;52.388;13.390;2022-12-17T11:12:49;-2.15;87.85
57709;SHT35;42558;52.388;13.390;2022-12-17T11:15:48;-2.07;87.76
57709;SHT35;42558;52.388;13.390;2022-12-17T11:18:49;-2.05;87.55
57709;SHT35;42558;52.388;13.390;2022-12-17T11:21:51;-2.25;87.37
57709;SHT35;42558;52.388;13.390;2022-12-17T11:25:02;-2.22;87.59
57709;SHT35;42558;52.388;13.390;2022-12-17T11:28:04;-2.07;87.84
57709;SHT35;42558;52.388;13.390;2022-12-17T11:37:21;-2.07;87.59
57709;SHT35;42558;52.388;13.390;2022-12-17T11:43:33;-2.13;88.03
57709;SHT35;42558;52.388;13.390;2022-12-17T11:56:38;-2.15;87.41
57709;SHT35;42558;52.388;13.390;2022-12-17T11:59:39;-2.22;87.48
57709;SHT35;42558;52.388;13.390;2022-12-17T12:11:59;-2.13;87.70
57709;SHT35;42558;52.388;13.390;2022-12-17T12:15:25;-2.15;87.74
57709;SHT35;42558;52.388;13.390;2022-12-17T12:25:03;-2.13;88.40
57709;SHT35;42558;52.388;13.390;2022-12-17T12:34:28;-2.20;88.28
57709;SHT35;42558;52.388;13.390;2022-12-17T12:37:20;-2.22;88.20
57709;SHT35;42558;52.388;13.390;2022-12-17T12:40:26;-2.24;88.28
57709;SHT35;42558;52.388;13.390;2022-12-17T12:43:25;-2.25;88.16
57709;SHT35;42558;52.388;13.390;2022-12-17T12:49:56;-2.30;87.89
57709;SHT35;42558;52.388;13.390;2022-12-17T12:52:56;-2.32;87.77
57709;SHT35;42558;52.388;13.390;2022-12-17T12:55:44;-2.28;87.89
57709;SHT35;42558;52.388;13.390;2022-12-17T12:58:33;-2.29;87.97
57709;SHT35;42558;52.388;13.390;2022-12-17T13:01:30;-2.30;87.93
57709;SHT35;42558;52.388;13.390;2022-12-17T13:07:24;-2.42;87.71
57709;SHT35;42558;52.388;13.390;2022-12-17T13:09:57;-2.43;87.78
57709;SHT35;42558;52.388;13.390;2022-12-17T13:15:15;-2.36;87.82
57709;SHT35;42558;52.388;13.390;2022-12-17T13:21:00;-2.33;87.74
57709;SHT35;42558;52.388;13.390;2022-12-17T13:23:53;-2.40;87.91
57709;SHT35;42558;52.388;13.390;2022-12-17T13:29:12;-2.38;88.14
57709;SHT35;42558;52.388;13.390;2022-12-17T13:31:59;-2.45;88.19
57709;SHT35;42558;52.388;13.390;2022-12-17T13:40:44;-2.53;88.78
57709;SHT35;42558;52.388;13.390;2022-12-17T13:43:43;-2.53;88.77
57709;SHT35;42558;52.388;13.390;2022-12-17T13:46:25;-2.50;88.78
57709;SHT35;42558;52.388;13.390;2022-12-17T13:49:03;-2.53;88.82
57709;SHT35;42558;52.388;13.390;2022-12-17T13:51:44;-2.56;88.75
57709;SHT35;42558;52.388;13.390;2022-12-17T13:54:15;-2.69;88.64
57709;SHT35;42558;52.388;13.390;2022-12-17T13:56:47;-2.69;88.82
57709;SHT35;42558;52.388;13.390;2022-12-17T13:59:18;-2.68;88.89
57709;SHT35;42558;52.388;13.390;2022-12-17T14:01:52;-2.65;88.86
57709;SHT35;42558;52.388;13.390;2022-12-17T14:04:24;-2.71;88.72
57709;SHT35;42558;52.388;13.390;2022-12-17T14:06:55;-2.65;88.79
57709;SHT35;42558;52.388;13.390;2022-12-17T14:09:36;-2.60;88.85
57709;SHT35;42558;52.388;13.390;2022-12-17T14:12:12;-2.61;88.82
57709;SHT35;42558;52.388;13.390;2022-12-17T14:14:52;-2.62;88.85
57709;SHT35;42558;52.388;13.390;2022-12-17T14:20:02;-2.76;88.76
57709;SHT35;42558;52.388;13.390;2022-12-17T14:22:38;-2.77;88.89
57709;SHT35;42558;52.388;13.390;2022-12-17T14:25:23;-3.01;89.05
57709;SHT35;42558;52.388;13.390;2022-12-17T14:28:27;-3.11;89.60
57709;SHT35;42558;52.388;13.390;2022-12-17T14:34:02;-2.99;89.79
57709;SHT35;42558;52.388;13.390;2022-12-17T14:36:40;-2.94;89.84
57709;SHT35;42558;52.388;13.390;2022-12-17T14:39:18;-3.11;89.72
57709;SHT35;42558;52.388;13.390;2022-12-17T14:41:57;-3.12;89.94
57709;SHT35;42558;52.388;13.390;2022-12-17T14:47:35;-3.03;89.88
57709;SHT35;42558;52.388;13.390;2022-12-17T14:52:48;-3.13;90.02
57709;SHT35;42558;52.388;13.390;2022-12-17T14:58:25;-3.10;90.38
57709;SHT35;42558;52.388;13.390;2022-12-17T15:01:07;-3.18;90.22
57709;SHT35;42558;52.388;13.390;2022-12-17T15:03:42;-3.30;90.33
57709;SHT35;42558;52.388;13.390;2022-12-17T15:06:18;-3.25;90.53
57709;SHT35;42558;52.388;13.390;2022-12-17T15:08:49;-3.18;90.58
57709;SHT35;42558;52.388;13.390;2022-12-17T15:11:20;-3.19;90.47
57709;SHT35;42558;52.388;13.390;2022-12-17T15:13:48;-3.36;90.63
57709;SHT35;42558;52.388;13.390;2022-12-17T15:16:24;-3.27;90.70
57709;SHT35;42558;52.388;13.390;2022-12-17T15:18:55;-3.24;90.70
57709;SHT35;42558;52.388;13.390;2022-12-17T15:21:25;-3.24;90.65
57709;SHT35;42558;52.388;13.390;2022-12-17T15:23:53;-3.17;90.70
57709;SHT35;42558;52.388;13.390;2022-12-17T15:26:22;-3.16;90.66
57709;SHT35;42558;52.388;13.390;2022-12-17T15:28:50;-3.18;90.66
57709;SHT35;42558;52.388;13.390;2022-12-17T15:31:18;-3.28;90.50
57709;SHT35;42558;52.388;13.390;2022-12-17T15:33:54;-3.37;90.72
57709;SHT35;42558;52.388;13.390;2022-12-17T15:36:24;-3.24;90.80
57709;SHT35;42558;52.388;13.390;2022-12-17T15:38:53;-3.34;90.67
57709;SHT35;42558;52.388;13.390;2022-12-17T15:41:23;-3.37;90.72
57709;SHT35;42558;52.388;13.390;2022-12-17T15:44:12;-3.29;90.79
57709;SHT35;42558;52.388;13.390;2022-12-17T15:46:42;-3.29;90.77
57709;SHT35;42558;52.388;13.390;2022-12-17T15:49:12;-3.38;90.69
57709;SHT35;42558;52.388;13.390;2022-12-17T15:51:42;-3.38;90.69
57709;SHT35;42558;52.388;13.390;2022-12-17T15:54:12;-3.32;90.79
57709;SHT35;42558;52.388;13.390;2022-12-17T15:56:41;-3.33;90.79
57709;SHT35;42558;52.388;13.390;2022-12-17T15:59:20;-3.32;90.80
57709;SHT35;42558;52.388;13.390;2022-12-17T16:01:50;-3.33;90.75
57709;SHT35;42558;52.388;13.390;2022-12-17T16:04:20;-3.36;90.80
57709;SHT35;42558;52.388;13.390;2022-12-17T16:06:53;-3.58;90.86
57709;SHT35;42558;52.388;13.390;2022-12-17T16:09:23;-3.65;91.16
57709;SHT35;42558;52.388;13.390;2022-12-17T16:11:55;-3.66;91.26
57709;SHT35;42558;52.388;13.390;2022-12-17T16:14:26;-3.63;91.40
57709;SHT35;42558;52.388;13.390;2022-12-17T16:16:56;-3.58;91.36
57709;SHT35;42558;52.388;13.390;2022-12-17T16:19:25;-3.64;91.28
57709;SHT35;42558;52.388;13.390;2022-12-17T16:21:55;-3.63;91.40
57709;SHT35;42558;52.388;13.390;2022-12-17T16:24:25;-3.48;91.44
57709;SHT35;42558;52.388;13.390;2022-12-17T16:26:55;-3.39;91.42
57709;SHT35;42558;52.388;13.390;2022-12-17T16:29:32;-3.37;91.26
57709;SHT35;42558;52.388;13.390;2022-12-17T16:32:02;-3.28;91.24
57709;SHT35;42558;52.388;13.390;2022-12-17T16:34:33;-3.36;91.01
57709;SHT35;42558;52.388;13.390;2022-12-17T16:37:03;-3.31;90.96
57709;SHT35;42558;52.388;13.390;2022-12-17T16:39:35;-3.31;90.89
57709;SHT35;42558;52.388;13.390;2022-12-17T16:42:05;-3.37;90.66
57709;SHT35;42558;52.388;13.390;2022-12-17T16:44:36;-3.39;90.64
57709;SHT35;42558;52.388;13.390;2022-12-17T16:47:06;-3.31;90.67
57709;SHT35;42558;52.388;13.390;2022-12-17T16:49:38;-3.30;90.56
57709;SHT35;42558;52.388;13.390;2022-12-17T16:52:08;-3.34;90.43
57709;SHT35;42558;52.388;13.390;2022-12-17T16:54:37;-3.27;90.56
57709;SHT35;42558;52.388;13.390;2022-12-17T16:57:07;-3.24;90.51
57709;SHT35;42558;52.388;13.390;2022-12-17T16:59:37;-3.50;90.35
57709;SHT35;42558;52.388;13.390;2022-12-17T17:02:10;-3.53;90.61
57709;SHT35;42558;52.388;13.390;2022-12-17T17:04:43;-3.49;90.76
57709;SHT35;42558;52.388;13.390;2022-12-17T17:07:13;-3.57;90.85
57709;SHT35;42558;52.388;13.390;2022-12-17T17:09:44;-3.51;90.94
57709;SHT35;42558;52.388;13.390;2022-12-17T17:12:14;-3.58;90.90
57709;SHT35;42558;52.388;13.390;2022-12-17T17:14:44;-3.65;90.84
57709;SHT35;42558;52.388;13.390;2022-12-17T17:17:14;-3.76;90.67
57709;SHT35;42558;52.388;13.390;2022-12-17T17:19:44;-3.69;90.89
57709;SHT35;42558;52.388;13.390;2022-12-17T17:22:14;-3.67;90.92
57709;SHT35;42558;52.388;13.390;2022-12-17T17:24:44;-3.77;90.71
57709;SHT35;42558;52.388;13.390;2022-12-17T17:27:13;-3.66;90.87
57709;SHT35;42558;52.388;13.390;2022-12-17T17:29:43;-3.78;90.75
57709;SHT35;42558;52.388;13.390;2022-12-17T17:32:11;-4.22;91.25
57709;SHT35;42558;52.388;13.390;2022-12-17T17:34:40;-4.23;91.80
57709;SHT35;42558;52.388;13.390;2022-12-17T17:37:08;-4.05;91.80
57709;SHT35;42558;52.388;13.390;2022-12-17T17:39:37;-3.97;91.80
57709;SHT35;42558;52.388;13.390;2022-12-17T17:42:05;-3.99;91.71
57709;SHT35;42558;52.388;13.390;2022-12-17T17:44:36;-4.06;91.60
57709;SHT35;42558;52.388;13.390;2022-12-17T17:47:05;-4.08;91.60
57709;SHT35;42558;52.388;13.390;2022-12-17T17:49:33;-4.07;91.63
57709;SHT35;42558;52.388;13.390;2022-12-17T17:52:02;-3.97;91.70
57709;SHT35;42558;52.388;13.390;2022-12-17T17:54:40;-3.92;91.68
57709;SHT35;42558;52.388;13.390;2022-12-17T17:57:10;-3.85;91.60
57709;SHT35;42558;52.388;13.390;2022-12-17T17:59:38;-3.86;91.51
57709;SHT35;42558;52.388;13.390;2022-12-17T18:02:08;-4.08;91.39
57709;SHT35;42558;52.388;13.390;2022-12-17T18:04:38;-4.24;91.77
57709;SHT35;42558;52.388;13.390;2022-12-17T18:07:07;-4.32;92.10
57709;SHT35;42558;52.388;13.390;2022-12-17T18:09:53;-4.53;92.36
57709;SHT35;42558;52.388;13.390;2022-12-17T18:12:24;-4.64;92.76
57709;SHT35;42558;52.388;13.390;2022-12-17T18:15:13;-4.58;92.97
57709;SHT35;42558;52.388;13.390;2022-12-17T18:17:45;-4.48;92.90
57709;SHT35;42558;52.388;13.390;2022-12-17T18:20:19;-4.45;92.80
57709;SHT35;42558;52.388;13.390;2022-12-17T18:22:49;-4.40;92.74
57709;SHT35;42558;52.388;13.390;2022-12-17T18:25:19;-4.49;92.57
57709;SHT35;42558;52.388;13.390;2022-12-17T18:27:52;-4.37;92.60
57709;SHT35;42558;52.388;13.390;2022-12-17T18:30:22;-4.39;92.51
57709;SHT35;42558;52.388;13.390;2022-12-17T18:32:52;-4.38;92.42
57709;SHT35;42558;52.388;13.390;2022-12-17T18:35:23;-4.28;92.49
57709;SHT35;42558;52.388;13.390;2022-12-17T18:37:53;-4.37;92.36
57709;SHT35;42558;52.388;13.390;2022-12-17T18:40:23;-4.31;92.40
57709;SHT35;42558;52.388;13.390;2022-12-17T18:43:01;-4.30;92.38
57709;SHT35;42558;52.388;13.390;2022-12-17T18:45:50;-4.34;92.32
57709;SHT35;42558;52.388;13.390;2022-12-17T18:48:21;-4.29;92.33
57709;SHT35;42558;52.388;13.390;2022-12-17T18:50:51;-4.54;92.07
57709;SHT35;42558;52.388;13.390;2022-12-17T18:53:21;-4.68;92.23
57709;SHT35;42558;52.388;13.390;2022-12-17T18:55:50;-4.79;92.34
57709;SHT35;42558;52.388;13.390;2022-12-17T18:58:20;-4.80;92.50
57709;SHT35;42558;52.388;13.390;2022-12-17T19:00:50;-4.79;92.59